Govans, Maryland
Current Conditions -  °F | °C
As of 3:45 PM on Thursday 18 Dec 2014 (Local Time) from KMTN Reporting Station
Broken Clouds Broken Clouds  
Wind Chill: 31°   Ceiling: 4000
Heat Index: 39°   Visibility: 10mi
Dew Point: 27°   Wind: 14mph
Humidity: 61%   Direction: 280°W
Pressure: 30.1"   Gusts: NA
Location:  39.3674°N, 76.6149°W
Report Text: KMTN 182045Z 28012KT 10SM BKN040 04/M03 A3010
Loading
Personal Weather Stations






























Interactive Weather Map New forecast layout! Learn more

10-Day Weather Forecast

Advertisements
Track Severe Weather on mobile